Terminal Aerodrome Forecast
Issued by NWS Portland, OR

Home | Current Version | Previous Version | Text Only | Print | Product List | Glossary On
Versions: 1 2 3 4 5 6 7 8 9 10 11 12 13 14 15 16 17 18 19 20 21 22 23 24 25 26 27 28 29
000
FTUS46 KPQR 220533
TAFEUG
TAF
KEUG 220533Z 2206/2306 18010KT P6SM -RA FEW045 OVC070
     FM221300 16012KT P6SM -RA BKN045 OVC070
     FM222100 16012G22KT 6SM -RA OVC045
     FM230300 17010KT 5SM RA BKN028 OVC035=

USA.gov is the U.S. government's official web portal to all federal, state and local government web resources and services.